createdAt,value
2016-08-23T00:00:16.313Z,1021.76
2016-08-23T00:01:29.301Z,1021.79
2016-08-23T00:02:42.277Z,1021.75
2016-08-23T00:03:55.462Z,1021.77
2016-08-23T00:05:08.446Z,1021.78
2016-08-23T00:06:21.447Z,1021.77
2016-08-23T00:07:34.464Z,1021.77
2016-08-23T00:08:47.441Z,1021.75
2016-08-23T00:10:00.620Z,1021.76
2016-08-23T00:11:13.606Z,1021.75
2016-08-23T00:12:26.595Z,1021.75
2016-08-23T00:13:39.728Z,1021.76
2016-08-23T00:14:52.699Z,1021.76
2016-08-23T00:16:05.688Z,1021.73
2016-08-23T00:17:18.671Z,1021.74
2016-08-23T00:18:31.646Z,1021.78
2016-08-23T00:19:44.626Z,1021.72
2016-08-23T00:20:57.807Z,1021.76
2016-08-23T00:22:10.801Z,1021.74
2016-08-23T00:23:23.781Z,1021.77
2016-08-23T00:24:36.763Z,1021.76
2016-08-23T00:25:49.745Z,1021.78
2016-08-23T00:27:02.727Z,1021.78
2016-08-23T00:28:15.729Z,1021.79
2016-08-23T00:29:28.713Z,1021.74
2016-08-23T00:30:41.689Z,1021.74
2016-08-23T00:31:54.660Z,1021.74
2016-08-23T00:33:07.851Z,1021.75
2016-08-23T00:34:20.827Z,1021.75
2016-08-23T00:35:33.807Z,1021.71
2016-08-23T00:36:46.992Z,1021.73
2016-08-23T00:37:59.961Z,1021.76
2016-08-23T00:39:13.151Z,1021.72
2016-08-23T00:40:26.539Z,1021.69
2016-08-23T00:41:39.521Z,1021.7
2016-08-23T00:42:52.493Z,1021.72
2016-08-23T00:44:05.471Z,1021.64
2016-08-23T00:45:18.452Z,1021.64
2016-08-23T00:46:31.436Z,1021.62
2016-08-23T00:47:44.414Z,1021.67
2016-08-23T00:48:57.389Z,1021.64
2016-08-23T00:50:10.371Z,1021.64
2016-08-23T00:51:23.353Z,1021.64
2016-08-23T00:52:36.538Z,1021.63
2016-08-23T00:53:49.521Z,1021.65
2016-08-23T00:55:02.496Z,1021.65
2016-08-23T00:56:15.477Z,1021.63
2016-08-23T00:57:28.454Z,1021.67
2016-08-23T00:58:41.434Z,1021.67
2016-08-23T00:59:54.415Z,1021.66
2016-08-23T01:01:07.390Z,1021.7
2016-08-23T01:02:20.372Z,1021.7
2016-08-23T01:03:33.364Z,1021.72
2016-08-23T01:04:46.341Z,1021.72
2016-08-23T01:05:59.537Z,1021.71
2016-08-23T01:07:12.511Z,1021.66
2016-08-23T01:08:25.496Z,1021.66
2016-08-23T01:09:38.474Z,1021.66
2016-08-23T01:10:51.451Z,1021.75
2016-08-23T01:12:04.428Z,1021.74
2016-08-23T01:13:17.603Z,1021.72
2016-08-23T01:14:30.644Z,1021.68
2016-08-23T01:15:43.621Z,1021.66
2016-08-23T01:16:56.610Z,1021.73
2016-08-23T01:18:09.597Z,1021.69
2016-08-23T01:19:22.577Z,1021.69
2016-08-23T01:20:35.566Z,1021.7
2016-08-23T01:21:48.547Z,1021.7
2016-08-23T01:23:01.519Z,1021.7
2016-08-23T01:24:14.502Z,1021.71
2016-08-23T01:25:27.519Z,1021.74
2016-08-23T01:26:40.700Z,1021.72
2016-08-23T01:27:53.682Z,1021.72
2016-08-23T01:29:06.662Z,1021.73
2016-08-23T01:30:19.648Z,1021.76
2016-08-23T01:31:32.631Z,1021.77
2016-08-23T01:32:45.812Z,1021.8
2016-08-23T01:33:58.796Z,1021.8
2016-08-23T01:35:11.787Z,1021.77
2016-08-23T01:36:24.763Z,1021.78
2016-08-23T01:37:37.758Z,1021.78
2016-08-23T01:38:50.750Z,1021.77
2016-08-23T01:40:03.744Z,1021.78
2016-08-23T01:41:16.727Z,1021.7
2016-08-23T01:42:29.704Z,1021.73
2016-08-23T01:43:42.885Z,1021.72
2016-08-23T01:44:55.890Z,1021.74
2016-08-23T01:46:08.878Z,1021.75
2016-08-23T01:47:21.863Z,1021.72
2016-08-23T01:48:34.841Z,1021.7
2016-08-23T01:49:47.829Z,1021.7
2016-08-23T01:51:00.810Z,1021.67
2016-08-23T01:52:13.787Z,1021.67
2016-08-23T01:53:26.774Z,1021.71
2016-08-23T01:54:39.752Z,1021.67
2016-08-23T01:55:52.731Z,1021.61
2016-08-23T01:57:05.712Z,1021.61
2016-08-23T01:58:18.701Z,1021.61
2016-08-23T01:59:31.683Z,1021.64
2016-08-23T02:00:44.865Z,1021.59
2016-08-23T02:01:57.841Z,1021.6
2016-08-23T02:03:10.830Z,1021.62
2016-08-23T02:04:23.806Z,1021.6
2016-08-23T02:05:36.783Z,1021.6
2016-08-23T02:06:49.767Z,1021.6
2016-08-23T02:08:02.745Z,1021.59
2016-08-23T02:09:15.925Z,1021.6
2016-08-23T02:10:28.903Z,1021.61
2016-08-23T02:11:41.883Z,1021.63
2016-08-23T02:12:54.860Z,1021.64
2016-08-23T02:14:08.041Z,1021.68
2016-08-23T02:15:21.077Z,1021.67
2016-08-23T02:16:34.071Z,1021.67
2016-08-23T02:17:47.047Z,1021.65
2016-08-23T02:19:00.027Z,1021.64
2016-08-23T02:20:13.000Z,1021.66
2016-08-23T02:21:26.016Z,1021.68
2016-08-23T02:22:38.998Z,1021.67
2016-08-23T02:23:51.981Z,1021.67
2016-08-23T02:25:04.961Z,1021.68
2016-08-23T02:26:17.937Z,1021.69
2016-08-23T02:27:31.122Z,1021.65
2016-08-23T02:28:44.104Z,1021.7
2016-08-23T02:29:57.284Z,1021.67
2016-08-23T02:31:10.668Z,1021.71
2016-08-23T02:32:23.659Z,1021.68
2016-08-23T02:33:36.647Z,1021.73
2016-08-23T02:34:49.624Z,1021.7
2016-08-23T02:36:02.608Z,1021.7
2016-08-23T02:37:15.592Z,1021.72
2016-08-23T02:38:28.800Z,1021.75
2016-08-23T02:39:41.785Z,1021.78
2016-08-23T02:40:54.769Z,1021.78
2016-08-23T02:42:07.751Z,1021.73
2016-08-23T02:43:20.738Z,1021.74
2016-08-23T02:44:33.920Z,1021.73
2016-08-23T02:45:46.900Z,1021.75
2016-08-23T02:46:59.879Z,1021.69
2016-08-23T02:48:12.855Z,1021.71
2016-08-23T02:49:25.838Z,1021.72
2016-08-23T02:50:38.823Z,1021.72
2016-08-23T02:51:51.811Z,1021.73
2016-08-23T02:53:04.790Z,1021.77
2016-08-23T02:54:17.769Z,1021.71
2016-08-23T02:55:30.953Z,1021.75
2016-08-23T02:56:43.933Z,1021.74
2016-08-23T02:57:56.907Z,1021.77
2016-08-23T02:59:09.886Z,1021.77
2016-08-23T03:00:22.863Z,1021.77
2016-08-23T03:01:36.043Z,1021.75
2016-08-23T03:02:49.022Z,1021.74
2016-08-23T03:04:02.201Z,1021.75
2016-08-23T03:05:15.377Z,1021.75
2016-08-23T03:06:28.360Z,1021.78
2016-08-23T03:07:41.352Z,1021.79
2016-08-23T03:08:54.341Z,1021.79
2016-08-23T03:10:07.530Z,1021.82
2016-08-23T03:11:20.513Z,1021.8
2016-08-23T03:12:33.494Z,1021.79
2016-08-23T03:13:46.493Z,1021.78
2016-08-23T03:14:59.486Z,1021.78
2016-08-23T03:16:12.721Z,1021.77
2016-08-23T03:17:25.907Z,1021.72
2016-08-23T03:18:38.885Z,1021.72
2016-08-23T03:19:51.866Z,1021.7
2016-08-23T03:21:04.849Z,1021.71
2016-08-23T03:22:17.823Z,1021.74
2016-08-23T03:23:30.843Z,1021.73
2016-08-23T03:24:43.823Z,1021.76
2016-08-23T03:25:56.998Z,1021.75
2016-08-23T03:27:10.175Z,1021.78
2016-08-23T03:28:23.354Z,1021.78
2016-08-23T03:29:36.335Z,1021.79
2016-08-23T03:30:49.314Z,1021.77
2016-08-23T03:32:02.494Z,1021.75
2016-08-23T03:33:15.475Z,1021.72
2016-08-23T03:34:28.455Z,1021.74
2016-08-23T03:35:41.437Z,1021.69
2016-08-23T03:36:54.612Z,1021.67
2016-08-23T03:38:07.592Z,1021.71
2016-08-23T03:39:20.574Z,1021.72
2016-08-23T03:40:33.548Z,1021.75
2016-08-23T03:41:46.532Z,1021.74
2016-08-23T03:42:59.528Z,1021.77
2016-08-23T03:44:12.712Z,1021.75
2016-08-23T03:45:25.895Z,1021.73
2016-08-23T03:46:38.871Z,1021.73
2016-08-23T03:47:51.846Z,1021.8
2016-08-23T03:49:04.835Z,1021.81
2016-08-23T03:50:18.012Z,1021.82
2016-08-23T03:51:30.992Z,1021.82
2016-08-23T03:52:44.172Z,1021.8
2016-08-23T03:53:57.355Z,1021.85
2016-08-23T03:55:10.341Z,1021.86
2016-08-23T03:56:23.314Z,1021.83
2016-08-23T03:57:36.290Z,1021.87
2016-08-23T03:58:49.270Z,1021.85
2016-08-23T04:00:02.239Z,1021.9
2016-08-23T04:01:15.414Z,1021.91
2016-08-23T04:02:28.427Z,1021.88
2016-08-23T04:03:41.408Z,1021.9
2016-08-23T04:04:54.401Z,1021.9
2016-08-23T04:06:07.384Z,1021.91
2016-08-23T04:07:20.359Z,1021.93
2016-08-23T04:08:33.332Z,1021.97
2016-08-23T04:09:46.320Z,1021.97
2016-08-23T04:10:59.297Z,1021.95
2016-08-23T04:12:12.477Z,1021.94
2016-08-23T04:13:25.458Z,1021.96
2016-08-23T04:14:38.436Z,1021.94
2016-08-23T04:15:51.415Z,1021.93
2016-08-23T04:17:04.445Z,1021.98
2016-08-23T04:18:17.427Z,1022.03
2016-08-23T04:19:30.410Z,1022.06
2016-08-23T04:20:43.392Z,1022.06
2016-08-23T04:21:56.375Z,1022.05
2016-08-23T04:23:09.358Z,1022.04
2016-08-23T04:24:22.552Z,1022.01
2016-08-23T04:25:35.532Z,1022.01
2016-08-23T04:26:48.514Z,1021.99
2016-08-23T04:28:01.495Z,1022
2016-08-23T04:29:14.470Z,1022.01
2016-08-23T04:30:27.650Z,1022.02
2016-08-23T04:31:40.845Z,1021.99
2016-08-23T04:32:53.834Z,1022.02
2016-08-23T04:34:06.809Z,1021.97
2016-08-23T04:35:19.789Z,1022
2016-08-23T04:36:32.773Z,1021.99
2016-08-23T04:37:45.757Z,1022.02
2016-08-23T04:38:58.739Z,1022.03
2016-08-23T04:40:11.716Z,1022.03
2016-08-23T04:41:24.715Z,1022.08
2016-08-23T04:42:37.685Z,1022.08
2016-08-23T04:43:50.662Z,1022.11
2016-08-23T04:45:03.643Z,1022.12
2016-08-23T04:46:16.625Z,1022.12
2016-08-23T04:47:29.624Z,1022.17
2016-08-23T04:48:42.606Z,1022.17
2016-08-23T04:49:55.592Z,1022.19
2016-08-23T04:51:08.580Z,1022.17
2016-08-23T04:52:21.559Z,1022.17
2016-08-23T04:53:34.549Z,1022.19
2016-08-23T04:54:47.732Z,1022.23
2016-08-23T04:56:00.711Z,1022.25
2016-08-23T04:57:13.701Z,1022.26
2016-08-23T04:58:26.672Z,1022.33
2016-08-23T04:59:39.653Z,1022.34
2016-08-23T05:00:52.842Z,1022.34
2016-08-23T05:02:05.844Z,1022.34
2016-08-23T05:03:18.838Z,1022.38
2016-08-23T05:04:31.812Z,1022.42
2016-08-23T05:05:44.805Z,1022.42
2016-08-23T05:06:57.798Z,1022.44
2016-08-23T05:08:10.979Z,1022.44
2016-08-23T05:09:23.958Z,1022.5
2016-08-23T05:10:36.935Z,1022.55
2016-08-23T05:11:50.118Z,1022.56
2016-08-23T05:13:03.101Z,1022.58
2016-08-23T05:14:16.486Z,1022.56
2016-08-23T05:15:29.481Z,1022.56
2016-08-23T05:16:42.482Z,1022.57
2016-08-23T05:17:55.504Z,1022.56
2016-08-23T05:19:08.672Z,1022.58
2016-08-23T05:20:21.667Z,1022.59
2016-08-23T05:21:34.675Z,1022.58
2016-08-23T05:22:47.659Z,1022.55
2016-08-23T05:24:00.638Z,1022.59
2016-08-23T05:25:13.617Z,1022.5
2016-08-23T05:26:26.601Z,1022.5
2016-08-23T05:27:39.585Z,1022.53
2016-08-23T05:28:52.564Z,1022.48
2016-08-23T05:30:05.549Z,1022.48
2016-08-23T05:31:18.532Z,1022.51
2016-08-23T05:32:31.510Z,1022.48
2016-08-23T05:33:44.483Z,1022.49
2016-08-23T05:34:57.670Z,1022.52
2016-08-23T05:36:10.651Z,1022.55
2016-08-23T05:37:23.668Z,1022.58
2016-08-23T05:38:36.653Z,1022.58
2016-08-23T05:39:49.833Z,1022.59
2016-08-23T05:41:02.807Z,1022.63
2016-08-23T05:42:15.808Z,1022.63
2016-08-23T05:43:28.835Z,1022.6
2016-08-23T05:44:42.021Z,1022.66
2016-08-23T05:45:55.405Z,1022.64
2016-08-23T05:47:08.580Z,1022.65
2016-08-23T05:48:21.761Z,1022.72
2016-08-23T05:49:34.747Z,1022.62
2016-08-23T05:50:47.722Z,1022.59
2016-08-23T05:52:00.907Z,1022.61
2016-08-23T05:53:13.891Z,1022.63
2016-08-23T05:54:26.875Z,1022.6
2016-08-23T05:55:39.859Z,1022.6
2016-08-23T05:56:52.840Z,1022.63
2016-08-23T05:58:05.834Z,1022.69
2016-08-23T05:59:18.815Z,1022.71
2016-08-23T06:00:31.796Z,1022.69
2016-08-23T06:01:44.782Z,1022.73
2016-08-23T06:02:57.760Z,1022.71
2016-08-23T06:04:10.942Z,1022.78
2016-08-23T06:05:23.922Z,1022.72
2016-08-23T06:06:36.918Z,1022.72
2016-08-23T06:07:49.897Z,1022.71
2016-08-23T06:09:03.091Z,1022.75
2016-08-23T06:10:16.080Z,1022.79
2016-08-23T06:11:29.310Z,1022.76
2016-08-23T06:12:42.286Z,1022.76
2016-08-23T06:13:55.264Z,1022.76
2016-08-23T06:15:08.249Z,1022.76
2016-08-23T06:16:21.226Z,1022.75
2016-08-23T06:17:34.210Z,1022.78
2016-08-23T06:18:47.239Z,1022.79
2016-08-23T06:20:00.229Z,1022.81
2016-08-23T06:21:13.213Z,1022.81
2016-08-23T06:22:26.413Z,1022.83
2016-08-23T06:23:39.403Z,1022.86
2016-08-23T06:24:52.391Z,1022.81
2016-08-23T06:26:05.385Z,1022.78
2016-08-23T06:27:18.386Z,1022.84
2016-08-23T06:28:31.379Z,1022.86
2016-08-23T06:29:44.373Z,1022.87
2016-08-23T06:30:57.357Z,1022.88
2016-08-23T06:32:10.343Z,1022.85
2016-08-23T06:33:23.328Z,1022.86
2016-08-23T06:34:36.316Z,1022.89
2016-08-23T06:35:49.295Z,1022.93
2016-08-23T06:37:02.307Z,1022.95
2016-08-23T06:38:15.304Z,1023.02
2016-08-23T06:39:28.285Z,1023.05
2016-08-23T06:40:41.265Z,1023.19
2016-08-23T06:41:54.456Z,1023.2
2016-08-23T06:43:07.435Z,1023.48
2016-08-23T06:44:20.425Z,1024.65
2016-08-23T06:45:33.410Z,1025.26
2016-08-23T06:46:46.405Z,1024.53
2016-08-23T06:47:59.388Z,1024.61
2016-08-23T06:49:12.370Z,1024.97
2016-08-23T06:50:25.362Z,1024.45
2016-08-23T06:51:38.345Z,1023.59
2016-08-23T06:52:51.335Z,1023.32
2016-08-23T06:54:04.326Z,1023.31
2016-08-23T06:55:17.319Z,1023.38
2016-08-23T06:56:30.923Z,1023.44
2016-08-23T06:57:45.197Z,1023.4
2016-08-23T06:58:58.242Z,1023.43
2016-08-23T07:00:11.277Z,1023.46
2016-08-23T07:01:27.174Z,1023.41
2016-08-23T07:02:43.493Z,1023.45
2016-08-23T07:03:56.611Z,1023.52
2016-08-23T07:05:10.306Z,1023.8
2016-08-23T07:06:23.326Z,1024.16
2016-08-23T07:07:36.562Z,1024.15
2016-08-23T07:08:49.577Z,1023.77
2016-08-23T07:10:02.578Z,1023.54
2016-08-23T07:11:15.576Z,1023.57
2016-08-23T07:12:28.572Z,1023.52
2016-08-23T07:13:41.571Z,1023.59
2016-08-23T07:14:54.567Z,1023.6
2016-08-23T07:16:08.390Z,1023.68
2016-08-23T07:17:23.247Z,1023.7
2016-08-23T07:18:36.255Z,1023.76
2016-08-23T07:19:49.314Z,1023.7
2016-08-23T07:21:02.327Z,1023.7
2016-08-23T07:22:15.600Z,1023.68
2016-08-23T07:23:28.584Z,1023.71
2016-08-23T07:24:41.589Z,1023.71
2016-08-23T07:25:54.802Z,1024.02
2016-08-23T07:27:07.817Z,1024.89
2016-08-23T07:28:21.030Z,1025.96
2016-08-23T07:29:34.027Z,1027.21
2016-08-23T07:30:47.235Z,1027.81
2016-08-23T07:32:00.375Z,1027.82
2016-08-23T07:33:13.413Z,1028.45
2016-08-23T07:34:26.443Z,1028.64
2016-08-23T07:35:39.441Z,1029.33
2016-08-23T07:36:52.636Z,1030.05
2016-08-23T07:38:05.637Z,1030.53
2016-08-23T07:39:18.652Z,1031.13
2016-08-23T07:40:31.668Z,1032.13
2016-08-23T07:41:44.675Z,1032.22
2016-08-23T07:42:57.879Z,1032.53
2016-08-23T07:44:10.877Z,1033.25
2016-08-23T07:45:24.075Z,1033.52
2016-08-23T07:46:37.117Z,1031.94
2016-08-23T07:47:50.124Z,1034.16
2016-08-23T07:49:03.129Z,1033.93
2016-08-23T07:50:16.139Z,1035.1
2016-08-23T07:51:29.338Z,1035.24
2016-08-23T07:52:42.356Z,1036.03
2016-08-23T07:53:55.359Z,1037.19
2016-08-23T07:55:08.410Z,1037.92
2016-08-23T07:56:21.411Z,1038.15
2016-08-23T07:57:34.413Z,1037.8
2016-08-23T07:58:47.416Z,1032.51
2016-08-23T08:00:00.424Z,1027.5
2016-08-23T08:01:13.448Z,1025.32
2016-08-23T08:02:26.455Z,1024.77
2016-08-23T08:03:39.454Z,1024.5
2016-08-23T08:04:52.543Z,1024.29
2016-08-23T08:06:05.755Z,1024.23
2016-08-23T08:07:18.749Z,1024.2
2016-08-23T08:08:31.757Z,1024.26
2016-08-23T08:09:44.766Z,1024.44
2016-08-23T08:10:57.775Z,1024.73
2016-08-23T08:12:10.802Z,1024.88
2016-08-23T08:13:23.803Z,1025.04
2016-08-23T08:14:36.811Z,1025.31
2016-08-23T08:15:49.832Z,1025.29
2016-08-23T08:17:02.862Z,1025.24
2016-08-23T08:18:15.869Z,1025.04
2016-08-23T08:19:28.920Z,1025.08
2016-08-23T08:20:42.130Z,1025.39
2016-08-23T08:21:55.134Z,1025.43
2016-08-23T08:23:08.154Z,1025.56
2016-08-23T08:24:21.168Z,1025.83
2016-08-23T08:25:34.181Z,1025.86
2016-08-23T08:26:47.195Z,1025.01
2016-08-23T08:28:00.401Z,1025.04
2016-08-23T08:29:13.398Z,1025.87
2016-08-23T08:30:26.414Z,1029.55
2016-08-23T08:31:39.421Z,1036.08
2016-08-23T08:32:52.423Z,1043.57
2016-08-23T08:34:05.421Z,1049.31
2016-08-23T08:35:18.425Z,1051.96
2016-08-23T08:36:31.437Z,1051.72
2016-08-23T08:37:44.447Z,1052.78
2016-08-23T08:38:57.446Z,1053.23
2016-08-23T08:40:10.471Z,1053.91
2016-08-23T08:41:23.478Z,1052.22
2016-08-23T08:42:36.480Z,1051.96
2016-08-23T08:43:49.485Z,1049.27
2016-08-23T08:45:02.687Z,1048.97
2016-08-23T08:46:15.692Z,1046.63
2016-08-23T08:47:28.899Z,1044.86
2016-08-23T08:48:42.101Z,1049.85
2016-08-23T08:49:55.113Z,1052.17
2016-08-23T08:51:08.120Z,1051.62
2016-08-23T08:52:21.329Z,1051.43
2016-08-23T08:53:34.340Z,1051.42
2016-08-23T08:54:47.352Z,1051.39
2016-08-23T08:56:00.367Z,1049.68
2016-08-23T08:57:13.372Z,1048.1
2016-08-23T08:58:26.385Z,1047.41
2016-08-23T08:59:39.397Z,1045.87
2016-08-23T09:00:52.395Z,1046.33
2016-08-23T09:02:05.424Z,1046.96
2016-08-23T09:03:18.441Z,1047.48
2016-08-23T09:04:31.443Z,1048.02
2016-08-23T09:05:44.458Z,1043.73
2016-08-23T09:06:57.511Z,1045.88
2016-08-23T09:08:10.521Z,1044.68
2016-08-23T09:09:23.528Z,1047.08
2016-08-23T09:10:36.534Z,1045.72
2016-08-23T09:11:49.539Z,1046.97
2016-08-23T09:13:02.551Z,1046.64
2016-08-23T09:14:15.559Z,1045.16
2016-08-23T09:15:28.766Z,1044.64
2016-08-23T09:16:41.772Z,1043.78
2016-08-23T09:17:54.782Z,1043.53
2016-08-23T09:19:07.801Z,1042.58
2016-08-23T09:20:20.862Z,1041.91
2016-08-23T09:21:34.075Z,1042.7
2016-08-23T09:22:47.094Z,1040.63
2016-08-23T09:24:00.109Z,1035.67
2016-08-23T09:25:13.117Z,1029.85
2016-08-23T09:26:26.320Z,1025.63
2016-08-23T09:27:39.326Z,1024.53
2016-08-23T09:28:52.331Z,1024.12
2016-08-23T09:30:05.338Z,1024.09
2016-08-23T09:31:18.346Z,1023.97
2016-08-23T09:32:31.354Z,1023.92
2016-08-23T09:33:44.567Z,1023.91
2016-08-23T09:34:57.587Z,1023.94
2016-08-23T09:36:11.006Z,1023.95
2016-08-23T09:37:24.009Z,1023.64
2016-08-23T09:38:37.046Z,1023.62
2016-08-23T09:39:50.058Z,1023.56
2016-08-23T09:41:03.289Z,1023.52
2016-08-23T09:42:16.300Z,1023.53
2016-08-23T09:43:29.318Z,1023.54
2016-08-23T09:44:42.320Z,1023.63
2016-08-23T09:45:55.322Z,1023.76
2016-08-23T09:47:08.339Z,1027.48
2016-08-23T09:48:21.344Z,1031.23
2016-08-23T09:49:34.358Z,1031.12
2016-08-23T09:50:47.375Z,1031.26
2016-08-23T09:52:00.590Z,1030.8
2016-08-23T09:53:13.599Z,1029.43
2016-08-23T09:54:26.599Z,1029.3
2016-08-23T09:55:40.368Z,1028.73
2016-08-23T09:56:53.377Z,1028.09
2016-08-23T09:58:06.379Z,1027.33
2016-08-23T09:59:19.387Z,1026.76
2016-08-23T10:00:32.596Z,1026.12
2016-08-23T10:01:45.798Z,1025.4
2016-08-23T10:02:58.798Z,1025.04
2016-08-23T10:04:11.808Z,1024.75
2016-08-23T10:05:24.814Z,1024.53
2016-08-23T10:06:37.813Z,1024.4
2016-08-23T10:07:51.032Z,1024.05
2016-08-23T10:09:04.035Z,1023.87
2016-08-23T10:10:17.049Z,1023.9
2016-08-23T10:11:30.055Z,1023.95
2016-08-23T10:12:43.271Z,1023.92
2016-08-23T10:13:56.286Z,1024.03
2016-08-23T10:15:09.292Z,1024.12
2016-08-23T10:16:22.502Z,1023.96
2016-08-23T10:17:35.518Z,1023.81
2016-08-23T10:18:48.536Z,1023.76
2016-08-23T10:20:01.550Z,1023.63
2016-08-23T10:21:14.608Z,1023.38
2016-08-23T10:22:27.623Z,1023.34
2016-08-23T10:23:40.630Z,1023.32
2016-08-23T10:24:53.956Z,1023.27
2016-08-23T10:26:07.317Z,1023.32
2016-08-23T10:27:22.015Z,1023.27
2016-08-23T10:28:35.112Z,1023.21
2016-08-23T10:29:48.315Z,1023.2
2016-08-23T10:31:01.320Z,1023.19
2016-08-23T10:32:14.327Z,1023.15
2016-08-23T10:33:27.337Z,1023.15
2016-08-23T10:34:40.348Z,1023.15
2016-08-23T10:35:53.583Z,1023.13
2016-08-23T10:37:06.591Z,1023.12
2016-08-23T10:38:19.589Z,1023.12
2016-08-23T10:39:32.591Z,1023.15
2016-08-23T10:40:45.596Z,1023.13
2016-08-23T10:41:58.608Z,1023.12
2016-08-23T10:43:11.608Z,1023.09
2016-08-23T10:44:24.615Z,1023.04
2016-08-23T10:45:37.631Z,1023.01
2016-08-23T10:46:50.647Z,1023.02
2016-08-23T10:48:03.853Z,1023.02
2016-08-23T10:49:16.864Z,1023.03
2016-08-23T10:50:30.072Z,1022.99
2016-08-23T10:51:43.075Z,1023.02
2016-08-23T10:52:56.107Z,1023.01
2016-08-23T10:54:09.108Z,1022.98
2016-08-23T10:55:22.353Z,1022.99
2016-08-23T10:56:35.357Z,1023.07
2016-08-23T10:57:48.562Z,1023.13
2016-08-23T10:59:01.579Z,1023.22
2016-08-23T11:00:14.599Z,1023.18
2016-08-23T11:01:27.615Z,1023.23
2016-08-23T11:02:40.625Z,1023.27
2016-08-23T11:03:53.850Z,1023.28
2016-08-23T11:05:06.852Z,1023.23
2016-08-23T11:06:19.870Z,1023.18
2016-08-23T11:07:32.877Z,1023.22
2016-08-23T11:08:45.880Z,1023.18
2016-08-23T11:09:59.101Z,1023.15
2016-08-23T11:11:12.314Z,1023.11
2016-08-23T11:12:25.324Z,1023.08
2016-08-23T11:13:38.334Z,1022.98
2016-08-23T11:14:51.345Z,1023.03
2016-08-23T11:16:04.543Z,1023.02
2016-08-23T11:17:17.556Z,1023.02
2016-08-23T11:18:30.559Z,1022.97
2016-08-23T11:19:43.555Z,1022.97
2016-08-23T11:20:56.557Z,1022.93
2016-08-23T11:22:09.607Z,1022.96
2016-08-23T11:23:22.615Z,1022.95
2016-08-23T11:24:35.620Z,1022.85
2016-08-23T11:25:48.628Z,1022.85
2016-08-23T11:27:01.625Z,1022.77
2016-08-23T11:28:14.864Z,1022.74
2016-08-23T11:29:27.874Z,1022.75
2016-08-23T11:30:40.871Z,1022.77
2016-08-23T11:31:53.866Z,1022.77
2016-08-23T11:33:07.090Z,1022.71
2016-08-23T11:34:20.113Z,1022.7
2016-08-23T11:35:33.318Z,1022.71
2016-08-23T11:36:46.368Z,1022.69
2016-08-23T11:37:59.379Z,1022.67
2016-08-23T11:39:12.379Z,1022.61
2016-08-23T11:40:25.404Z,1022.63
2016-08-23T11:41:38.419Z,1022.59
2016-08-23T11:42:51.424Z,1022.6
2016-08-23T11:44:04.425Z,1022.62
2016-08-23T11:45:17.462Z,1022.61
2016-08-23T11:46:30.463Z,1022.65
2016-08-23T11:47:43.496Z,1022.66
2016-08-23T11:48:56.509Z,1022.64
2016-08-23T11:50:09.508Z,1022.62
2016-08-23T11:51:22.525Z,1022.59
2016-08-23T11:52:35.530Z,1022.57
2016-08-23T11:53:48.558Z,1022.55
2016-08-23T11:55:01.563Z,1022.52
2016-08-23T11:56:14.557Z,1022.56
2016-08-23T11:57:27.567Z,1022.5
2016-08-23T11:58:40.586Z,1022.49
2016-08-23T11:59:53.588Z,1022.49
2016-08-23T12:01:06.621Z,1022.51
2016-08-23T12:02:19.624Z,1022.52
2016-08-23T12:03:32.627Z,1022.46
2016-08-23T12:04:45.835Z,1022.46
2016-08-23T12:05:59.048Z,1022.43
2016-08-23T12:07:12.085Z,1022.44
2016-08-23T12:08:25.097Z,1022.44
2016-08-23T12:09:38.099Z,1022.49
2016-08-23T12:10:51.113Z,1022.47
2016-08-23T12:12:04.107Z,1022.41
2016-08-23T12:13:17.542Z,1022.43
2016-08-23T12:14:30.748Z,1022.42
2016-08-23T12:15:43.767Z,1022.35
2016-08-23T12:16:56.767Z,1022.38
2016-08-23T12:18:09.775Z,1022.37
2016-08-23T12:19:22.778Z,1022.32
2016-08-23T12:20:35.781Z,1022.36
2016-08-23T12:21:48.791Z,1022.36
2016-08-23T12:23:02.052Z,1022.33
2016-08-23T12:24:15.073Z,1022.32
2016-08-23T12:25:28.077Z,1022.34
2016-08-23T12:26:41.080Z,1022.31
2016-08-23T12:27:54.086Z,1022.29
2016-08-23T12:29:07.089Z,1022.29
2016-08-23T12:30:20.094Z,1022.26
2016-08-23T12:31:33.104Z,1022.27
2016-08-23T12:32:46.106Z,1022.25
2016-08-23T12:33:59.262Z,1022.26
2016-08-23T12:35:12.457Z,1022.23
2016-08-23T12:36:25.455Z,1022.22
2016-08-23T12:37:38.661Z,1022.21
2016-08-23T12:38:51.880Z,1022.22
2016-08-23T12:40:04.881Z,1022.24
2016-08-23T12:41:17.890Z,1022.2
2016-08-23T12:42:30.893Z,1022.19
2016-08-23T12:43:43.885Z,1022.19
2016-08-23T12:45:00.808Z,1022.21
2016-08-23T12:46:15.231Z,1022.23
2016-08-23T12:47:28.330Z,1022.19
2016-08-23T12:48:41.326Z,1022.19
2016-08-23T12:49:54.332Z,1022.17
2016-08-23T12:51:07.329Z,1022.15
2016-08-23T12:52:20.328Z,1022.11
2016-08-23T12:53:33.536Z,1022.12
2016-08-23T12:54:46.534Z,1022.12
2016-08-23T12:55:59.536Z,1022.11
2016-08-23T12:57:12.535Z,1022.08
2016-08-23T12:58:25.718Z,1022.08
2016-08-23T12:59:38.719Z,1022.07
2016-08-23T13:00:51.921Z,1022.04
2016-08-23T13:02:04.920Z,1022.03
2016-08-23T13:03:17.929Z,1022.03
2016-08-23T13:04:30.935Z,1022.05
2016-08-23T13:05:43.938Z,1022.08
2016-08-23T13:06:56.944Z,1022.06
2016-08-23T13:08:09.956Z,1022.06
2016-08-23T13:09:22.951Z,1022.05
2016-08-23T13:10:35.950Z,1022.06
2016-08-23T13:11:48.958Z,1022.08
2016-08-23T13:13:01.978Z,1022.12
2016-08-23T13:14:15.379Z,1022.08
2016-08-23T13:15:28.397Z,1022.03
2016-08-23T13:16:41.405Z,1022.07
2016-08-23T13:17:54.395Z,1021.98
2016-08-23T13:19:07.399Z,1022.02
2016-08-23T13:20:20.407Z,1021.99
2016-08-23T13:21:33.810Z,1021.97
2016-08-23T13:22:46.803Z,1021.96
2016-08-23T13:23:59.857Z,1021.97
2016-08-23T13:25:12.863Z,1022
2016-08-23T13:26:25.866Z,1021.98
2016-08-23T13:27:38.860Z,1021.97
2016-08-23T13:28:51.856Z,1021.93
2016-08-23T13:30:04.857Z,1021.94
2016-08-23T13:31:17.858Z,1021.93
2016-08-23T13:32:30.862Z,1021.91
2016-08-23T13:33:43.859Z,1021.86
2016-08-23T13:34:56.851Z,1021.89
2016-08-23T13:36:09.845Z,1021.88
2016-08-23T13:37:22.846Z,1021.86
2016-08-23T13:38:35.859Z,1021.88
2016-08-23T13:39:48.849Z,1021.85
2016-08-23T13:41:01.849Z,1021.85
2016-08-23T13:42:15.045Z,1021.86
2016-08-23T13:43:28.041Z,1021.82
2016-08-23T13:44:41.042Z,1021.79
2016-08-23T13:45:54.061Z,1021.78
2016-08-23T13:47:07.065Z,1021.79
2016-08-23T13:48:20.284Z,1021.76
2016-08-23T13:49:33.318Z,1021.76
2016-08-23T13:50:46.318Z,1021.78
2016-08-23T13:51:59.525Z,1021.79
2016-08-23T13:53:12.743Z,1021.8
2016-08-23T13:54:25.735Z,1021.77
2016-08-23T13:55:38.742Z,1021.74
2016-08-23T13:56:51.755Z,1021.7
2016-08-23T13:58:04.950Z,1021.69
2016-08-23T13:59:17.954Z,1021.69
2016-08-23T14:00:30.948Z,1021.74
2016-08-23T14:01:43.956Z,1021.73
2016-08-23T14:02:56.951Z,1021.78
2016-08-23T14:04:09.958Z,1021.75
2016-08-23T14:05:22.949Z,1021.72
2016-08-23T14:06:35.944Z,1021.72
2016-08-23T14:07:48.941Z,1021.73
2016-08-23T14:09:01.946Z,1021.71
2016-08-23T14:10:14.949Z,1021.68
2016-08-23T14:11:27.943Z,1021.69
2016-08-23T14:12:40.934Z,1021.69
2016-08-23T14:13:53.948Z,1021.66
2016-08-23T14:15:06.939Z,1021.66
2016-08-23T14:16:20.134Z,1021.71
2016-08-23T14:17:33.141Z,1021.68
2016-08-23T14:18:46.133Z,1021.68
2016-08-23T14:19:59.138Z,1021.66
2016-08-23T14:21:12.136Z,1021.64
2016-08-23T14:22:25.140Z,1021.62
2016-08-23T14:23:38.151Z,1021.63
2016-08-23T14:24:51.390Z,1021.61
2016-08-23T14:26:04.392Z,1021.61
2016-08-23T14:27:17.390Z,1021.57
2016-08-23T14:28:30.375Z,1021.57
2016-08-23T14:29:43.368Z,1021.54
2016-08-23T14:30:56.365Z,1021.5
2016-08-23T14:32:09.369Z,1021.51
2016-08-23T14:33:22.375Z,1021.5
2016-08-23T14:34:35.368Z,1021.47
2016-08-23T14:35:48.373Z,1021.46
2016-08-23T14:37:01.372Z,1021.47
2016-08-23T14:38:14.376Z,1021.47
2016-08-23T14:39:27.384Z,1021.43
2016-08-23T14:40:40.383Z,1021.41
2016-08-23T14:41:53.383Z,1021.41
2016-08-23T14:43:06.392Z,1021.39
2016-08-23T14:44:19.394Z,1021.37
2016-08-23T14:45:32.393Z,1021.36